Time;durP1;ratioP1;P1;durP2;ratioP2;P2;SDS_P1;SDS_P2;PMS_P1;PMS_P2;Temp;Humidity;BMP_temperature;BMP_pressure;BME280_temperature;BME280_humidity;BME280_pressure;Samples;Min_cycle;Max_cycle;Signal;HPM_P1;HPM_P2
2023/08/24 00:01:16;;;;;;;4.93;3.40;;;20.90;99.90;;;;;;5114056;28;20453;-81
2023/08/24 00:03:45;;;;;;;4.00;3.70;;;20.90;99.90;;;;;;5113804;28;20501;-81
2023/08/24 00:06:12;;;;;;;3.30;3.00;;;20.90;99.90;;;;;;5113995;28;20459;-81
2023/08/24 00:08:39;;;;;;;3.43;3.13;;;20.80;99.90;;;;;;5114364;28;20454;-81
2023/08/24 00:11:07;;;;;;;5.27;4.17;;;20.80;99.90;;;;;;5113995;28;20808;-81
2023/08/24 00:13:34;;;;;;;4.20;3.80;;;20.80;99.90;;;;;;5113567;28;20474;-81
2023/08/24 00:16:01;;;;;;;3.50;3.20;;;20.80;99.90;;;;;;5113521;28;20458;-81
2023/08/24 00:18:28;;;;;;;4.83;3.50;;;20.80;99.90;;;;;;5113542;28;20452;-81
2023/08/24 00:20:56;;;;;;;3.63;3.33;;;20.70;99.90;;;;;;5113490;28;20963;-81
2023/08/24 00:23:23;;;;;;;4.93;3.73;;;20.60;99.90;;;;;;5113494;28;20446;-81
2023/08/24 00:25:49;;;;;;;5.10;4.60;;;20.60;99.90;;;;;;5113611;28;21040;-81
2023/08/24 00:28:16;;;;;;;4.60;3.83;;;20.60;99.90;;;;;;5113525;28;20434;-81
2023/08/24 00:30:43;;;;;;;3.73;3.43;;;20.60;99.90;;;;;;5113710;28;20442;-81
2023/08/24 00:33:10;;;;;;;5.47;3.80;;;20.60;99.90;;;;;;5113653;28;20434;-81
2023/08/24 00:35:36;;;;;;;4.20;3.60;;;20.60;99.90;;;;;;5114540;28;20464;-81
2023/08/24 00:38:04;;;;;;;4.10;3.80;;;20.50;99.90;;;;;;5117941;28;20461;-81
2023/08/24 00:40:32;;;;;;;7.33;4.00;;;20.50;99.90;;;;;;5118456;28;20442;-81
2023/08/24 00:42:59;;;;;;;4.27;3.87;;;20.50;99.90;;;;;;5117841;28;20511;-81
2023/08/24 00:45:25;;;;;;;4.50;3.67;;;20.50;99.90;;;;;;5117402;28;20470;-81
2023/08/24 00:47:53;;;;;;;5.40;4.20;;;20.40;99.90;;;;;;5117783;27;20438;-81
2023/08/24 00:50:20;;;;;;;4.37;3.93;;;20.40;99.90;;;;;;5117937;28;20816;-81
2023/08/24 00:52:49;;;;;;;4.87;4.47;;;20.40;99.90;;;;;;5117845;28;20446;-81
2023/08/24 00:55:18;;;;;;;4.97;4.23;;;20.40;99.90;;;;;;5117454;28;20478;-81
2023/08/24 00:57:45;;;;;;;4.37;4.00;;;20.40;99.90;;;;;;5117572;28;20454;-81
2023/08/24 01:00:13;;;;;;;4.63;3.03;;;20.30;99.90;;;;;;5117225;27;20543;-81
2023/08/24 01:02:40;;;;;;;5.03;3.60;;;20.30;99.90;;;;;;5116948;28;20990;-81
2023/08/24 01:05:08;;;;;;;7.70;3.77;;;20.40;99.90;;;;;;5117634;28;20466;-81
2023/08/24 01:07:36;;;;;;;4.67;4.27;;;20.30;99.90;;;;;;5117363;28;20998;-81
2023/08/24 01:10:04;;;;;;;3.90;3.60;;;20.30;99.90;;;;;;5117867;28;20774;-81
2023/08/24 01:12:44;;;;;;;4.17;3.47;;;20.20;99.90;;;;;;5117353;28;20462;-81
2023/08/24 01:15:18;;;;;;;5.13;4.50;;;20.30;99.90;;;;;;5117133;28;20481;-81
2023/08/24 01:17:46;;;;;;;3.70;3.40;;;20.30;99.90;;;;;;5116924;28;20433;-81
2023/08/24 01:20:16;;;;;;;3.30;3.00;;;20.30;99.90;;;;;;5116854;28;20966;-81
2023/08/24 01:22:50;;;;;;;4.50;3.60;;;20.20;99.90;;;;;;5117062;28;20446;-81
2023/08/24 01:25:20;;;;;;;3.27;3.07;;;20.20;99.90;;;;;;5117012;28;20458;-81
2023/08/24 01:27:50;;;;;;;4.50;4.13;;;20.20;99.90;;;;;;5117095;28;20427;-81
2023/08/24 01:30:18;;;;;;;4.40;4.00;;;20.10;99.90;;;;;;5116629;28;20896;-81
2023/08/24 01:32:45;;;;;;;5.73;3.77;;;20.20;99.90;;;;;;5116598;28;20877;-81
2023/08/24 01:35:12;;;;;;;4.00;3.70;;;20.20;99.90;;;;;;5116729;28;20488;-81
2023/08/24 01:37:39;;;;;;;7.83;4.87;;;20.20;99.90;;;;;;5116846;28;20450;-81
2023/08/24 01:40:10;;;;;;;3.43;3.13;;;20.20;99.90;;;;;;5116475;28;20927;-81
2023/08/24 01:42:43;;;;;;;3.37;3.00;;;20.20;99.90;;;;;;5116751;28;20433;-81
2023/08/24 01:45:13;;;;;;;5.40;3.47;;;20.10;99.90;;;;;;5116623;28;20463;-81
2023/08/24 01:47:42;;;;;;;4.57;4.10;;;20.10;99.90;;;;;;5115456;28;20446;-81
2023/08/24 01:50:10;;;;;;;4.93;3.93;;;20.10;99.90;;;;;;5116588;28;20458;-81
2023/08/24 01:52:37;;;;;;;4.47;3.70;;;20.10;99.90;;;;;;5116513;28;20438;-81
2023/08/24 01:55:04;;;;;;;3.77;3.47;;;20.10;99.90;;;;;;5115946;28;20862;-81
2023/08/24 01:57:31;;;;;;;5.10;3.20;;;20.10;99.90;;;;;;5116111;28;20453;-81
2023/08/24 01:59:58;;;;;;;3.70;3.40;;;20.00;99.90;;;;;;5116373;27;20441;-81
2023/08/24 02:02:26;;;;;;;9.43;3.30;;;20.00;99.90;;;;;;5116359;28;20465;-81
2023/08/24 02:04:53;;;;;;;3.27;3.07;;;20.00;99.90;;;;;;5075616;28;20448;-81
2023/08/24 02:07:20;;;;;;;3.20;2.97;;;20.00;99.90;;;;;;5075602;28;20444;-81
2023/08/24 02:09:46;;;;;;;4.43;3.33;;;20.00;99.90;;;;;;5075589;28;20441;-81
2023/08/24 02:12:13;;;;;;;3.17;2.87;;;20.00;99.90;;;;;;5075545;28;20506;-81
2023/08/24 02:14:40;;;;;;;4.70;3.80;;;19.90;99.90;;;;;;5075042;28;20993;-81
2023/08/24 02:17:06;;;;;;;3.90;3.60;;;19.90;99.90;;;;;;5075435;28;20440;-81
2023/08/24 02:19:34;;;;;;;3.13;2.93;;;19.90;99.90;;;;;;5075414;28;20452;-81
2023/08/24 02:22:01;;;;;;;4.20;3.73;;;19.90;99.90;;;;;;5075324;28;20441;-81
2023/08/24 02:24:28;;;;;;;3.47;3.17;;;19.80;99.90;;;;;;5074917;28;20824;-81
2023/08/24 02:26:55;;;;;;;6.90;3.90;;;19.80;99.90;;;;;;5074955;28;20451;-81
2023/08/24 02:29:21;;;;;;;3.93;3.60;;;19.80;99.90;;;;;;5075294;28;20452;-81
2023/08/24 02:31:50;;;;;;;4.87;3.90;;;19.80;99.90;;;;;;5075107;28;20467;-81
2023/08/24 02:34:17;;;;;;;3.87;3.50;;;19.80;99.90;;;;;;5075142;28;20491;-81
2023/08/24 02:36:45;;;;;;;5.07;3.97;;;19.80;99.90;;;;;;5075032;28;20441;-81
2023/08/24 02:39:12;;;;;;;6.53;4.10;;;19.70;99.90;;;;;;5074952;28;20930;-81
2023/08/24 02:41:39;;;;;;;4.67;4.10;;;19.70;99.90;;;;;;5074607;28;20539;-81
2023/08/24 02:44:06;;;;;;;3.70;3.30;;;19.70;99.90;;;;;;5074868;28;20441;-81
2023/08/24 02:46:32;;;;;;;4.93;3.93;;;19.70;99.90;;;;;;5074494;28;20463;-81
2023/08/24 02:48:59;;;;;;;4.50;3.27;;;19.70;99.90;;;;;;5075013;28;20441;-81
2023/08/24 02:51:26;;;;;;;4.53;4.13;;;19.70;99.90;;;;;;5074720;28;20436;-81
2023/08/24 02:53:54;;;;;;;5.57;4.40;;;19.70;99.90;;;;;;5074620;28;20448;-81
2023/08/24 02:56:21;;;;;;;4.60;4.03;;;19.70;99.90;;;;;;5074480;28;20472;-81
2023/08/24 02:58:47;;;;;;;7.17;3.90;;;19.70;99.90;;;;;;5073974;28;20950;-81
2023/08/24 03:01:14;;;;;;;4.30;3.90;;;19.70;99.90;;;;;;5074466;28;20437;-81
2023/08/24 03:03:41;;;;;;;5.00;4.37;;;19.70;99.90;;;;;;5094945;28;20501;-81
2023/08/24 03:06:09;;;;;;;6.20;4.53;;;19.70;99.90;;;;;;5115243;28;20810;-81
2023/08/24 03:08:36;;;;;;;7.00;4.77;;;19.70;99.90;;;;;;5114721;28;20446;-81
2023/08/24 03:11:04;;;;;;;6.07;4.10;;;19.70;99.90;;;;;;5114658;28;20449;-81
2023/08/24 03:13:32;;;;;;;6.33;4.30;;;19.70;99.90;;;;;;5115144;28;20445;-81
2023/08/24 03:16:03;;;;;;;5.00;3.80;;;19.70;99.90;;;;;;5114718;28;20486;-81
2023/08/24 03:18:30;;;;;;;5.67;4.57;;;19.70;99.90;;;;;;5114564;28;20907;-81
2023/08/24 03:20:57;;;;;;;5.30;4.70;;;19.60;99.90;;;;;;5114718;28;20442;-81
2023/08/24 03:23:24;;;;;;;4.40;4.00;;;19.70;99.90;;;;;;5114453;28;20499;-81
2023/08/24 03:25:50;;;;;;;6.60;4.57;;;19.60;99.90;;;;;;5114605;28;20451;-81
2023/08/24 03:28:18;;;;;;;4.53;4.13;;;19.70;99.90;;;;;;5114649;28;20441;-81
2023/08/24 03:30:49;;;;;;;5.33;4.33;;;19.70;99.90;;;;;;5114580;28;20442;-81
2023/08/24 03:33:16;;;;;;;5.87;3.53;;;19.60;99.90;;;;;;5114477;28;20439;-81
2023/08/24 03:35:43;;;;;;;5.17;4.73;;;19.60;99.90;;;;;;5114374;28;20487;-81
2023/08/24 03:38:10;;;;;;;5.27;4.40;;;19.60;99.90;;;;;;5114492;28;20449;-81
2023/08/24 03:40:37;;;;;;;8.73;4.33;;;19.60;99.90;;;;;;5114428;28;20450;-81
2023/08/24 03:43:04;;;;;;;4.83;3.93;;;19.60;99.90;;;;;;5114406;28;20446;-81
2023/08/24 03:45:32;;;;;;;4.53;3.80;;;19.60;99.90;;;;;;5114238;28;20562;-81
2023/08/24 03:47:59;;;;;;;4.23;3.83;;;19.60;99.90;;;;;;5113986;28;20962;-81
2023/08/24 03:50:26;;;;;;;5.07;4.30;;;19.60;99.90;;;;;;5114403;28;20447;-81
2023/08/24 03:52:54;;;;;;;6.37;4.70;;;19.60;99.90;;;;;;5114250;28;20439;-81
2023/08/24 03:55:22;;;;;;;8.97;3.97;;;19.60;99.90;;;;;;5113742;28;20581;-81
2023/08/24 03:57:49;;;;;;;4.13;3.73;;;19.60;99.90;;;;;;5114142;28;20466;-81
2023/08/24 04:00:16;;;;;;;7.27;4.80;;;19.70;99.90;;;;;;5113794;28;20784;-81
2023/08/24 04:02:45;;;;;;;4.47;3.47;;;19.70;99.90;;;;;;5113876;27;20499;-81
2023/08/24 04:05:12;;;;;;;8.80;4.30;;;19.70;99.90;;;;;;5113978;28;20512;-81
2023/08/24 04:07:40;;;;;;;5.67;4.00;;;19.70;99.90;;;;;;5113974;28;20446;-81
2023/08/24 04:10:08;;;;;;;4.20;3.90;;;19.70;99.90;;;;;;5113362;28;20446;-81
2023/08/24 04:12:35;;;;;;;6.93;4.70;;;19.70;99.90;;;;;;5113967;28;20434;-81
2023/08/24 04:15:02;;;;;;;4.57;4.17;;;19.70;99.90;;;;;;5113782;28;20508;-81
2023/08/24 04:17:29;;;;;;;4.13;3.63;;;19.80;99.90;;;;;;5113878;28;20448;-81
2023/08/24 04:19:57;;;;;;;8.13;4.80;;;19.80;99.90;;;;;;5113897;28;20439;-81
2023/08/24 04:22:23;;;;;;;5.60;4.20;;;19.90;99.90;;;;;;5113809;28;20443;-81
2023/08/24 04:24:50;;;;;;;5.00;4.20;;;19.80;99.90;;;;;;5113435;28;20458;-81
2023/08/24 04:27:17;;;;;;;4.60;3.90;;;19.90;99.90;;;;;;5113792;28;20435;-81
2023/08/24 04:29:44;;;;;;;4.80;3.90;;;19.90;99.90;;;;;;5113797;28;20442;-81
2023/08/24 04:32:10;;;;;;;5.30;4.50;;;19.90;99.90;;;;;;5113970;28;20435;-81
2023/08/24 04:34:37;;;;;;;5.20;4.30;;;20.00;99.90;;;;;;5113847;28;20474;-81
2023/08/24 04:37:06;;;;;;;7.17;3.60;;;20.00;99.90;;;;;;5113684;28;20438;-81
2023/08/24 04:39:33;;;;;;;6.60;4.70;;;20.00;99.90;;;;;;5113677;28;20446;-82
2023/08/24 04:42:00;;;;;;;4.53;3.90;;;20.00;99.90;;;;;;5113843;28;20449;-81
2023/08/24 04:44:27;;;;;;;6.43;4.10;;;20.00;99.90;;;;;;5113554;28;20453;-81
2023/08/24 04:46:53;;;;;;;7.10;4.03;;;20.00;99.90;;;;;;5113267;28;20449;-81
2023/08/24 04:49:20;;;;;;;4.40;3.97;;;20.10;99.90;;;;;;5113589;28;20434;-81
2023/08/24 04:51:47;;;;;;;4.63;4.23;;;20.10;99.90;;;;;;5113532;28;20443;-81
2023/08/24 04:54:15;;;;;;;6.50;4.40;;;20.10;99.90;;;;;;5113545;28;20442;-81
2023/08/24 04:56:41;;;;;;;6.37;3.73;;;20.10;99.90;;;;;;5113182;28;20850;-81
2023/08/24 04:59:08;;;;;;;5.90;4.20;;;20.00;99.90;;;;;;5113504;28;20443;-81
2023/08/24 05:01:35;;;;;;;4.63;4.17;;;20.10;99.90;;;;;;5113475;28;20442;-81
2023/08/24 05:04:02;;;;;;;5.23;4.43;;;20.10;99.90;;;;;;5113110;28;20470;-81
2023/08/24 05:06:29;;;;;;;4.40;4.00;;;20.10;99.90;;;;;;5113337;28;20450;-81
2023/08/24 05:08:56;;;;;;;4.77;3.70;;;20.10;99.90;;;;;;5113525;28;20442;-81
2023/08/24 05:11:28;;;;;;;6.00;4.67;;;20.20;99.90;;;;;;5113389;28;20450;-81
2023/08/24 05:13:55;;;;;;;4.30;3.90;;;20.20;99.90;;;;;;5113368;28;20441;-81
2023/08/24 05:16:22;;;;;;;4.33;4.00;;;20.20;99.90;;;;;;5113169;28;20482;-81
2023/08/24 05:18:49;;;;;;;5.50;4.40;;;20.20;99.90;;;;;;5113302;28;20454;-81
2023/08/24 05:21:15;;;;;;;5.07;4.57;;;20.20;99.90;;;;;;5113503;28;20466;-81
2023/08/24 05:23:42;;;;;;;5.30;4.37;;;20.20;99.90;;;;;;5117106;28;20438;-81
2023/08/24 05:26:09;;;;;;;5.77;4.17;;;20.30;99.90;;;;;;5117253;28;20806;-81
2023/08/24 05:28:37;;;;;;;6.23;4.10;;;20.30;99.90;;;;;;5117026;28;20453;-81
2023/08/24 05:31:04;;;;;;;5.13;4.20;;;20.30;99.90;;;;;;5116973;28;20443;-81
2023/08/24 05:33:33;;;;;;;4.30;3.90;;;20.30;99.90;;;;;;5116913;28;20442;-81
2023/08/24 05:35:59;;;;;;;4.53;4.13;;;20.40;99.90;;;;;;5116686;28;20493;-81
2023/08/24 05:38:26;;;;;;;4.53;3.87;;;20.40;99.90;;;;;;5117141;28;20438;-81
2023/08/24 05:40:53;;;;;;;4.17;3.10;;;20.40;99.90;;;;;;5116795;28;20446;-81
2023/08/24 05:43:20;;;;;;;7.83;4.10;;;20.40;99.90;;;;;;5116734;28;20765;-81
2023/08/24 05:45:49;;;;;;;6.73;4.27;;;20.50;99.90;;;;;;5117492;28;20473;-81
2023/08/24 05:48:16;;;;;;;5.07;4.00;;;20.50;99.90;;;;;;5116348;28;20790;-81
2023/08/24 05:50:46;;;;;;;8.30;3.90;;;20.60;99.90;;;;;;5116604;28;20438;-81
2023/08/24 05:53:13;;;;;;;4.40;3.90;;;20.60;99.90;;;;;;5116586;28;20443;-81
2023/08/24 05:55:40;;;;;;;5.23;3.87;;;20.60;99.90;;;;;;5116212;28;20474;-81
2023/08/24 05:58:06;;;;;;;4.97;4.20;;;20.70;99.90;;;;;;5116216;28;20423;-81
2023/08/24 06:00:34;;;;;;;5.33;3.40;;;20.80;99.90;;;;;;5116383;28;20443;-81
2023/08/24 06:03:03;;;;;;;5.93;4.50;;;20.80;99.90;;;;;;5116042;28;20474;-81
2023/08/24 06:05:31;;;;;;;5.93;3.80;;;20.80;99.90;;;;;;5116282;28;20447;-81
2023/08/24 06:07:58;;;;;;;3.87;3.20;;;20.80;99.90;;;;;;5116184;27;20438;-81
2023/08/24 06:10:26;;;;;;;6.93;4.90;;;20.90;99.90;;;;;;5116197;28;20438;-81
2023/08/24 06:12:53;;;;;;;4.30;3.60;;;21.00;99.90;;;;;;5115858;28;20446;-81
2023/08/24 06:15:23;;;;;;;4.50;4.10;;;20.90;99.90;;;;;;5115944;28;20827;-81
2023/08/24 06:17:50;;;;;;;11.97;4.67;;;20.90;99.90;;;;;;5116303;28;20435;-81
2023/08/24 06:20:19;;;;;;;4.00;3.70;;;20.90;99.90;;;;;;5116012;28;20445;-81
2023/08/24 06:22:45;;;;;;;4.43;4.03;;;21.00;99.90;;;;;;5115734;28;20517;-81
2023/08/24 06:25:12;;;;;;;11.20;4.23;;;20.90;99.90;;;;;;5115802;28;20461;-81
2023/08/24 06:27:39;;;;;;;4.27;3.87;;;20.90;99.90;;;;;;5115970;28;20871;-81
2023/08/24 06:30:07;;;;;;;4.60;3.53;;;20.90;99.90;;;;;;5115666;28;20453;-81
2023/08/24 06:32:34;;;;;;;5.70;3.70;;;21.00;99.90;;;;;;5115779;28;20435;-81
2023/08/24 06:35:00;;;;;;;3.93;3.63;;;20.80;99.90;;;;;;5114970;28;20462;-81
2023/08/24 06:37:28;;;;;;;5.87;4.70;;;20.90;99.90;;;;;;5115687;28;20446;-81
2023/08/24 06:39:55;;;;;;;7.20;4.30;;;20.90;99.90;;;;;;5115371;28;20427;-81
2023/08/24 06:42:22;;;;;;;8.50;3.70;;;20.90;99.90;;;;;;5115304;28;20931;-81
2023/08/24 06:44:50;;;;;;;6.80;4.70;;;21.00;99.90;;;;;;5115489;28;20461;-81
2023/08/24 06:47:17;;;;;;;5.33;4.83;;;21.00;99.90;;;;;;5115167;28;21000;-81
2023/08/24 06:49:44;;;;;;;9.50;4.60;;;21.00;99.90;;;;;;5115499;28;20484;-81
2023/08/24 06:52:11;;;;;;;15.03;4.80;;;21.10;99.90;;;;;;5115094;28;20930;-81
2023/08/24 06:54:39;;;;;;;5.30;4.40;;;21.10;99.90;;;;;;5115361;28;20451;-81
2023/08/24 06:57:06;;;;;;;5.63;3.93;;;21.10;99.90;;;;;;5115265;28;20490;-81
2023/08/24 06:59:32;;;;;;;3.67;3.37;;;21.20;99.90;;;;;;5115255;28;20443;-81
2023/08/24 07:01:59;;;;;;;4.57;4.17;;;21.20;99.90;;;;;;5115215;28;20439;-81
2023/08/24 07:04:27;;;;;;;4.03;3.67;;;21.20;99.90;;;;;;5114667;28;20474;-81
2023/08/24 07:06:54;;;;;;;6.17;4.30;;;21.20;99.90;;;;;;5115054;28;20442;-81
2023/08/24 07:09:21;;;;;;;4.87;4.50;;;21.20;99.90;;;;;;5115032;28;20470;-81
2023/08/24 07:11:49;;;;;;;15.33;4.87;;;21.30;99.90;;;;;;5115029;28;20443;-81
2023/08/24 07:14:16;;;;;;;7.57;4.27;;;21.30;99.90;;;;;;5115017;27;20435;-81
2023/08/24 07:16:43;;;;;;;4.77;4.10;;;21.40;99.90;;;;;;5114513;28;21021;-81
2023/08/24 07:19:10;;;;;;;5.00;4.27;;;21.40;99.90;;;;;;5114870;28;20438;-81
2023/08/24 07:21:36;;;;;;;7.57;4.70;;;21.40;99.90;;;;;;5114523;27;20438;-81
2023/08/24 07:24:04;;;;;;;5.90;4.83;;;21.50;99.90;;;;;;5114859;28;20446;-81
2023/08/24 07:26:31;;;;;;;6.00;4.93;;;21.70;99.90;;;;;;5114618;28;20462;-81
2023/08/24 07:28:59;;;;;;;5.63;4.30;;;21.90;99.90;;;;;;5114677;28;20482;-81
2023/08/24 07:31:27;;;;;;;8.10;4.50;;;22.10;99.90;;;;;;5114356;27;20523;-81
2023/08/24 07:33:53;;;;;;;4.63;3.60;;;22.30;99.90;;;;;;5114576;28;20439;-81
2023/08/24 07:36:20;;;;;;;8.80;4.03;;;22.60;99.90;;;;;;5114363;28;20224;-81
2023/08/24 07:38:47;;;;;;;6.67;4.60;;;22.80;99.90;;;;;;5114485;28;20442;-81
2023/08/24 07:41:14;;;;;;;4.87;4.40;;;23.00;99.90;;;;;;5114358;28;20197;-81
2023/08/24 07:43:41;;;;;;;3.53;3.23;;;23.20;99.90;;;;;;5114419;27;20197;-81
2023/08/24 07:46:09;;;;;;;6.00;4.38;;;23.30;99.90;;;;;;5113087;28;20705;-81
2023/08/24 07:48:36;;;;;;;4.90;4.30;;;23.50;99.90;;;;;;5114571;28;20201;-81
2023/08/24 07:51:03;;;;;;;4.47;4.07;;;23.60;99.90;;;;;;5114000;27;20200;-81
2023/08/24 07:53:30;;;;;;;4.40;3.60;;;23.80;99.90;;;;;;5114197;28;20215;-81
2023/08/24 07:55:57;;;;;;;4.15;3.45;;;24.10;99.90;;;;;;5114101;28;20269;-81
2023/08/24 07:58:24;;;;;;;7.15;3.70;;;24.30;99.90;;;;;;5114210;28;20229;-81
2023/08/24 08:00:51;;;;;;;3.03;2.83;;;24.40;99.90;;;;;;5114117;28;20215;-82
2023/08/24 08:03:19;;;;;;;3.15;2.92;;;24.60;99.90;;;;;;5113938;28;20232;-82
2023/08/24 08:05:46;;;;;;;3.90;2.90;;;24.80;99.90;;;;;;5113866;28;20224;-81
2023/08/24 08:08:14;;;;;;;3.78;3.35;;;25.00;99.90;;;;;;5113709;28;20207;-81
2023/08/24 08:10:41;;;;;;;4.00;3.33;;;25.10;99.90;;;;;;5113933;27;20193;-81
2023/08/24 08:13:08;;;;;;;3.15;2.95;;;25.30;99.90;;;;;;5113986;28;20277;-81
2023/08/24 08:15:35;;;;;;;2.95;2.75;;;25.50;99.90;;;;;;5113958;28;20216;-81
2023/08/24 08:18:02;;;;;;;3.58;3.38;;;25.70;99.90;;;;;;5113897;27;20209;-82
2023/08/24 08:20:31;;;;;;;3.00;2.80;;;25.80;99.90;;;;;;5113867;28;20378;-81
2023/08/24 08:22:57;;;;;;;5.53;3.10;;;25.90;99.90;;;;;;5113519;28;20197;-82
2023/08/24 08:25:24;;;;;;;2.72;2.53;;;26.00;99.90;;;;;;5113523;28;20232;-82
2023/08/24 08:27:51;;;;;;;5.05;3.42;;;26.20;99.90;;;;;;5113549;28;20193;-82
2023/08/24 08:30:20;;;;;;;3.05;2.85;;;26.40;99.90;;;;;;5113736;28;20197;-82
2023/08/24 08:32:46;;;;;;;4.97;3.05;;;26.50;99.90;;;;;;5113752;28;20201;-82
2023/08/24 08:35:13;;;;;;;2.90;2.50;;;26.70;99.90;;;;;;5113575;28;20239;-82
2023/08/24 08:37:41;;;;;;;3.25;2.90;;;26.70;99.90;;;;;;5113590;28;20227;-82
2023/08/24 08:40:11;;;;;;;5.80;4.13;;;26.80;99.90;;;;;;5114229;28;20203;-83
2023/08/24 08:42:38;;;;;;;3.47;2.88;;;26.90;99.90;;;;;;5113368;28;20201;-81
2023/08/24 08:45:09;;;;;;;3.25;1.90;;;27.10;99.90;;;;;;5113551;28;20224;-82
2023/08/24 08:47:36;;;;;;;3.00;2.60;;;27.30;99.90;;;;;;5113559;28;20187;-81
2023/08/24 08:50:03;;;;;;;4.47;3.05;;;27.50;99.90;;;;;;5113920;28;20197;-81
2023/08/24 08:52:30;;;;;;;6.18;3.78;;;27.70;99.90;;;;;;5113154;28;20211;-81
2023/08/24 08:54:58;;;;;;;5.68;3.63;;;28.00;99.90;;;;;;5113174;28;20736;-81
2023/08/24 08:57:26;;;;;;;2.63;2.40;;;28.10;99.90;;;;;;5115719;28;20213;-83
2023/08/24 08:59:53;;;;;;;3.15;2.90;;;28.50;99.90;;;;;;5118337;28;20201;-92
2023/08/24 09:02:21;;;;;;;6.90;3.28;;;29.00;99.90;;;;;;5118535;28;20243;-91
2023/08/24 09:04:49;;;;;;;3.22;3.00;;;29.50;99.90;;;;;;5118260;28;20243;-90
2023/08/24 09:07:16;;;;;;;4.97;4.53;;;29.60;99.90;;;;;;5118636;28;20193;-93
2023/08/24 09:09:43;;;;;;;7.55;5.53;;;29.60;99.90;;;;;;5118605;28;20207;-90
2023/08/24 09:12:11;;;;;;;7.25;6.55;;;29.60;99.90;;;;;;5118533;28;20551;-90
2023/08/24 09:14:39;;;;;;;6.15;5.55;;;29.50;99.90;;;;;;5118318;28;20230;-89
2023/08/24 09:17:06;;;;;;;6.85;6.00;;;29.50;99.90;;;;;;5117419;28;20226;-82
2023/08/24 09:19:35;;;;;;;9.15;8.30;;;29.40;99.90;;;;;;5117226;28;20217;-83
2023/08/24 09:22:03;;;;;;;9.02;8.25;;;29.50;99.90;;;;;;5117154;28;20252;-82
2023/08/24 09:24:32;;;;;;;7.47;6.43;;;29.60;99.90;;;;;;5117065;28;20214;-81
2023/08/24 09:26:58;;;;;;;5.90;5.40;;;29.30;99.90;;;;;;5117083;28;20203;-82
2023/08/24 09:29:27;;;;;;;6.90;6.07;;;29.20;99.90;;;;;;5116776;28;20195;-82
2023/08/24 09:31:54;;;;;;;9.90;9.10;;;29.30;99.90;;;;;;5116962;28;20199;-83
2023/08/24 09:34:22;;;;;;;7.95;7.25;;;29.10;99.90;;;;;;5116876;28;20217;-82
2023/08/24 09:36:48;;;;;;;9.23;8.40;;;28.90;99.90;;;;;;5116844;28;20219;-82
2023/08/24 09:39:19;;;;;;;7.07;6.43;;;28.90;99.90;;;;;;5116532;28;20671;-82
2023/08/24 09:41:47;;;;;;;9.25;8.43;;;29.00;99.90;;;;;;5116559;28;20281;-82
2023/08/24 09:44:14;;;;;;;10.55;9.05;;;29.00;99.90;;;;;;5116532;28;20691;-82
2023/08/24 09:46:42;;;;;;;7.43;6.63;;;29.00;99.90;;;;;;5116645;28;20225;-82
2023/08/24 09:49:10;;;;;;;6.85;6.25;;;29.10;99.90;;;;;;5116400;28;20209;-82
2023/08/24 09:51:38;;;;;;;9.32;8.60;;;29.40;99.90;;;;;;5116735;28;20286;-82
2023/08/24 09:54:08;;;;;;;5.38;4.85;;;29.30;99.90;;;;;;5116647;28;20199;-81
2023/08/24 09:56:37;;;;;;;8.88;8.07;;;29.30;99.90;;;;;;5116552;28;20281;-81
2023/08/24 09:59:13;;;;;;;8.57;7.82;;;29.30;99.90;;;;;;5116429;27;20198;-85
2023/08/24 10:01:44;;;;;;;9.00;8.23;;;29.20;99.90;;;;;;5116163;28;20255;-81
2023/08/24 10:04:12;;;;;;;7.07;5.95;;;29.30;99.90;;;;;;5115249;28;20235;-82
2023/08/24 10:06:41;;;;;;;12.48;11.45;;;29.30;99.90;;;;;;5116134;28;20330;-83
2023/08/24 10:09:09;;;;;;;8.05;7.25;;;29.30;99.90;;;;;;5115353;28;20204;-83
2023/08/24 10:11:46;;;;;;;10.18;9.25;;;29.50;99.90;;;;;;5116243;27;20191;-82
2023/08/24 10:14:19;;;;;;;10.95;9.88;;;29.70;99.90;;;;;;5116153;28;20200;-81
2023/08/24 10:16:49;;;;;;;7.90;7.22;;;29.70;99.90;;;;;;5116047;27;20657;-82
2023/08/24 10:19:16;;;;;;;9.45;8.68;;;29.80;99.90;;;;;;5115649;28;20697;-82
2023/08/24 10:21:43;;;;;;;8.45;7.30;;;29.80;99.90;;;;;;5115976;28;20205;-82
2023/08/24 10:24:13;;;;;;;9.27;8.38;;;29.90;99.90;;;;;;5115918;28;20210;-82
2023/08/24 10:26:41;;;;;;;11.35;10.30;;;29.90;99.90;;;;;;5115530;28;20217;-82
2023/08/24 10:29:08;;;;;;;15.82;14.50;;;30.00;99.90;;;;;;5115552;27;20229;-82
2023/08/24 10:31:36;;;;;;;10.57;9.57;;;30.10;99.90;;;;;;5115776;28;20206;-82
2023/08/24 10:34:07;;;;;;;9.98;8.95;;;30.20;99.90;;;;;;5115774;28;20213;-82
2023/08/24 10:36:34;;;;;;;12.90;11.90;;;30.20;99.90;;;;;;5115645;28;20227;-82
2023/08/24 10:39:05;;;;;;;15.38;14.02;;;30.20;99.90;;;;;;5115700;28;20213;-82
2023/08/24 10:41:47;;;;;;;17.60;16.35;;;30.20;99.90;;;;;;5115708;27;20567;-81
2023/08/24 10:44:23;;;;;;;19.08;17.73;;;30.40;99.90;;;;;;5115534;28;20597;-82
2023/08/24 10:47:09;;;;;;;10.80;9.82;;;30.50;99.90;;;;;;5115571;28;20236;-82
2023/08/24 10:49:38;;;;;;;11.48;9.85;;;30.50;99.90;;;;;;5115504;28;20197;-82
2023/08/24 10:52:24;;;;;;;12.18;11.18;;;30.50;99.90;;;;;;5115437;28;20304;-82
2023/08/24 10:54:52;;;;;;;7.65;6.90;;;30.50;99.90;;;;;;5115064;28;20727;-82
2023/08/24 10:57:23;;;;;;;8.18;7.38;;;30.60;99.90;;;;;;5115337;28;20292;-82
2023/08/24 11:00:01;;;;;;;11.48;9.80;;;30.70;99.90;;;;;;5115530;28;20272;-82
2023/08/24 11:02:30;;;;;;;9.38;7.85;;;30.90;99.90;;;;;;5114809;28;20205;-82
2023/08/24 11:05:19;;;;;;;12.00;11.13;;;31.00;99.90;;;;;;5115142;28;20225;-82
2023/08/24 11:07:53;;;;;;;14.38;13.13;;;31.40;99.90;;;;;;5114875;28;20548;-82
2023/08/24 11:10:21;;;;;;;20.00;18.45;;;31.50;99.90;;;;;;5115162;28;20605;-82
2023/08/24 11:13:11;;;;;;;23.77;22.23;;;31.40;99.90;;;;;;5115015;28;20241;-82
2023/08/24 11:15:40;;;;;;;24.10;22.48;;;31.50;99.90;;;;;;5115312;28;20226;-81
2023/08/24 11:18:22;;;;;;;14.48;13.02;;;31.40;99.90;;;;;;5114544;28;20218;-82
2023/08/24 11:20:52;;;;;;;20.75;19.25;;;31.30;99.90;;;;;;5114739;28;20240;-83
2023/08/24 11:23:20;;;;;;;21.42;19.92;;;31.20;99.90;;;;;;5115100;28;20208;-82
2023/08/24 11:25:48;;;;;;;25.23;23.48;;;31.10;99.90;;;;;;5114654;28;20222;-82
2023/08/24 11:28:18;;;;;;;25.17;23.35;;;31.20;99.90;;;;;;5114743;28;20209;-81
2023/08/24 11:30:46;;;;;;;24.25;22.55;;;31.00;99.90;;;;;;5114941;28;20192;-82
2023/08/24 11:33:13;;;;;;;16.60;14.95;;;31.00;99.90;;;;;;5114328;28;20240;-82
2023/08/24 11:35:42;;;;;;;16.80;15.45;;;31.00;99.90;;;;;;5114154;28;20220;-82
2023/08/24 11:38:10;;;;;;;19.65;18.10;;;31.10;99.90;;;;;;5114441;27;20234;-82
2023/08/24 11:40:37;;;;;;;24.27;22.67;;;31.00;99.90;;;;;;5114457;28;20203;-82
2023/08/24 11:43:05;;;;;;;16.95;15.45;;;31.00;99.90;;;;;;5114433;28;20219;-82
2023/08/24 11:45:33;;;;;;;18.25;16.63;;;31.00;99.90;;;;;;5114324;28;20721;-82
2023/08/24 11:48:01;;;;;;;19.13;17.85;;;31.00;99.90;;;;;;5114069;28;20199;-82
2023/08/24 11:50:28;;;;;;;14.23;13.07;;;31.00;99.90;;;;;;5114384;28;20613;-82
2023/08/24 11:52:54;;;;;;;14.57;13.38;;;30.90;99.90;;;;;;5113948;28;20234;-81
2023/08/24 11:55:23;;;;;;;16.55;15.18;;;30.90;99.90;;;;;;5114168;27;20270;-82
2023/08/24 11:57:50;;;;;;;15.73;14.43;;;30.90;99.90;;;;;;5114427;28;20210;-81
2023/08/24 12:00:19;;;;;;;17.80;16.50;;;31.00;99.90;;;;;;5113841;28;20209;-82
2023/08/24 12:02:46;;;;;;;15.80;14.20;;;31.00;99.90;;;;;;5113906;28;20212;-81
2023/08/24 12:05:23;;;;;;;23.45;21.92;;;31.20;99.90;;;;;;5114011;28;20226;-82
2023/08/24 12:07:50;;;;;;;16.60;15.40;;;31.10;99.90;;;;;;5113780;28;20653;-82
2023/08/24 12:10:17;;;;;;;19.63;18.25;;;31.00;99.90;;;;;;5114004;28;20208;-82
2023/08/24 12:12:45;;;;;;;25.33;23.52;;;31.00;99.90;;;;;;5114008;28;20189;-82
2023/08/24 12:15:17;;;;;;;17.83;16.27;;;31.10;99.90;;;;;;5113863;28;20694;-82
2023/08/24 12:17:44;;;;;;;14.57;13.45;;;31.20;99.90;;;;;;5113643;28;20231;-82
2023/08/24 12:20:19;;;;;;;24.83;23.20;;;31.30;99.90;;;;;;5113881;28;20229;-81
2023/08/24 12:22:51;;;;;;;15.48;14.38;;;31.30;99.90;;;;;;5114133;28;20198;-82
2023/08/24 12:25:17;;;;;;;26.60;24.55;;;31.30;99.90;;;;;;5113811;28;20223;-82
2023/08/24 12:27:46;;;;;;;24.65;22.88;;;31.30;99.90;;;;;;5113855;28;20199;-82
2023/08/24 12:30:13;;;;;;;55.15;52.08;;;31.30;99.90;;;;;;5114834;28;20276;-82
2023/08/24 12:32:44;;;;;;;16.50;15.20;;;31.30;99.90;;;;;;5114320;28;20205;-82
2023/08/24 12:35:11;;;;;;;49.05;46.20;;;31.40;99.90;;;;;;5114435;28;20226;-82
2023/08/24 12:37:38;;;;;;;31.10;29.30;;;31.30;99.90;;;;;;5114120;28;20253;-83
2023/08/24 12:40:05;;;;;;;58.83;55.60;;;31.30;99.90;;;;;;5113792;28;20203;-82
2023/08/24 12:42:32;;;;;;;49.28;46.33;;;31.30;99.90;;;;;;5113319;28;20217;-82
2023/08/24 12:45:00;;;;;;;36.05;34.00;;;31.20;99.90;;;;;;5113860;28;20221;-83
2023/08/24 12:47:27;;;;;;;49.97;47.00;;;31.20;99.90;;;;;;5113581;28;20198;-82